Titus, Alabama
Current Conditions -  °F | °C
As of 5:55 PM on Friday 19 Dec 2014 (Local Time) from K1A9 Reporting Station
Drizzle Drizzle  
Wind Chill: 46°   Ceiling: 9000
Heat Index: 46°   Visibility: 10mi
Dew Point: 44°   Wind: 3mph
Humidity: 90%   Direction: 280°W
Pressure: 30.17"   Gusts: NA
Location:  32.71°N, 86.32°W
Report Text: K1A9 192355Z AUTO 28003KT 10SM -DZ OVC090 08/06 A3017 RMK AO2 P0002 60003 T00800064 10111 20080
Loading
Personal Weather Stations






























Interactive Weather Map New forecast layout! Learn more

10-Day Weather Forecast

Advertisements
Track Severe Weather on mobile